createdAt,value
2022-09-15T00:00:28.995Z,18.12
2022-09-15T00:05:30.888Z,18.24
2022-09-15T00:10:32.853Z,18.29
2022-09-15T00:15:34.751Z,18.29
2022-09-15T00:20:40.439Z,18.22
2022-09-15T00:25:48.114Z,18.32
2022-09-15T00:30:52.674Z,18.27
2022-09-15T00:35:54.693Z,18.36
2022-09-15T00:40:58.418Z,18.39
2022-09-15T00:46:00.371Z,18.34
2022-09-15T00:51:05.376Z,18.32
2022-09-15T00:56:11.993Z,18.33
2022-09-15T01:01:16.106Z,18.29
2022-09-15T01:07:01.389Z,18.32
2022-09-15T01:12:04.317Z,18.32
2022-09-15T01:17:09.121Z,18.30
2022-09-15T01:22:38.741Z,18.26
2022-09-15T01:28:01.739Z,18.21
2022-09-15T01:33:49.131Z,18.09
2022-09-15T01:38:56.738Z,18.19
2022-09-15T01:44:07.368Z,18.13
2022-09-15T01:49:14.790Z,18.12
2022-09-15T01:54:20.213Z,18.05
2022-09-15T01:59:22.341Z,18.07
2022-09-15T02:05:06.497Z,18.06
2022-09-15T02:10:13.852Z,18.09
2022-09-15T02:15:24.428Z,18.05
2022-09-15T02:20:33.452Z,18.03
2022-09-15T02:25:44.136Z,18.07
2022-09-15T02:30:48.604Z,18.00
2022-09-15T02:35:52.320Z,17.99
2022-09-15T02:40:54.226Z,17.90
2022-09-15T02:45:56.219Z,17.88
2022-09-15T02:50:58.201Z,17.90
2022-09-15T02:56:00.323Z,17.90
2022-09-15T03:01:06.760Z,17.91
2022-09-15T03:06:19.677Z,17.85
2022-09-15T03:11:23.652Z,17.96
2022-09-15T03:16:27.722Z,17.92
2022-09-15T03:21:30.600Z,17.85
2022-09-15T03:26:32.872Z,17.88
2022-09-15T03:31:34.765Z,17.88
2022-09-15T03:36:36.856Z,17.83
2022-09-15T03:41:38.861Z,17.85
2022-09-15T03:46:41.033Z,17.83
2022-09-15T03:51:43.262Z,17.67
2022-09-15T03:56:48.977Z,17.73
2022-09-15T04:01:50.988Z,17.77
2022-09-15T04:06:53.407Z,17.81
2022-09-15T04:11:55.345Z,17.72
2022-09-15T04:16:57.206Z,17.58
2022-09-15T04:21:59.042Z,17.67
2022-09-15T04:27:01.013Z,17.65
2022-09-15T04:32:03.253Z,17.55
2022-09-15T04:37:05.314Z,17.59
2022-09-15T04:42:07.895Z,17.51
2022-09-15T04:47:09.977Z,17.67
2022-09-15T04:52:11.933Z,17.64
2022-09-15T04:57:14.029Z,17.83
2022-09-15T05:02:16.031Z,17.96
2022-09-15T05:07:18.940Z,18.13
2022-09-15T05:12:21.505Z,18.09
2022-09-15T05:17:26.706Z,18.15
2022-09-15T05:22:28.934Z,18.15
2022-09-15T05:27:32.843Z,18.17
2022-09-15T05:32:35.081Z,18.42
2022-09-15T05:37:36.985Z,18.49
2022-09-15T05:42:38.893Z,18.59
2022-09-15T05:47:41.087Z,18.56
2022-09-15T05:52:43.081Z,18.77
2022-09-15T05:57:45.057Z,18.85
2022-09-15T06:02:46.951Z,18.96
2022-09-15T06:07:48.922Z,19.01
2022-09-15T06:12:53.485Z,19.03
2022-09-15T06:17:55.443Z,19.07
2022-09-15T06:22:57.469Z,19.06
2022-09-15T06:27:59.613Z,19.11
2022-09-15T06:33:01.457Z,19.42
2022-09-15T06:38:03.370Z,19.40
2022-09-15T06:43:05.309Z,19.63
2022-09-15T06:48:23.603Z,19.45
2022-09-15T06:53:29.925Z,20.09
2022-09-15T06:58:33.848Z,20.31
2022-09-15T07:03:37.248Z,20.31
2022-09-15T07:08:40.663Z,20.61
2022-09-15T07:13:42.681Z,20.31
2022-09-15T07:18:45.387Z,20.51
2022-09-15T07:23:48.381Z,20.93
2022-09-15T07:28:56.243Z,20.77
2022-09-15T07:34:02.238Z,20.53
2022-09-15T07:39:11.900Z,20.14
2022-09-15T07:44:19.971Z,20.13
2022-09-15T07:49:21.804Z,20.47
2022-09-15T07:54:23.726Z,20.73
2022-09-15T07:59:26.118Z,21.06
2022-09-15T08:04:28.197Z,20.92
2022-09-15T08:09:30.217Z,20.99
2022-09-15T08:14:32.838Z,21.14
2022-09-15T08:19:35.482Z,21.14
2022-09-15T08:24:37.449Z,22.01
2022-09-15T08:29:39.312Z,21.96
2022-09-15T08:34:41.240Z,22.43
2022-09-15T08:39:43.241Z,21.96
2022-09-15T08:44:48.511Z,22.28
2022-09-15T08:50:22.920Z,22.16
2022-09-15T08:55:45.816Z,22.56
2022-09-15T09:00:58.100Z,22.65
2022-09-15T09:06:24.321Z,22.57
2022-09-15T09:11:50.583Z,21.81
2022-09-15T09:17:17.805Z,21.62
2022-09-15T09:22:31.961Z,21.06
2022-09-15T09:27:35.110Z,20.68
2022-09-15T09:32:56.060Z,20.37
2022-09-15T09:37:59.979Z,20.57
2022-09-15T09:43:02.073Z,20.13
2022-09-15T09:48:24.145Z,19.83
2022-09-15T09:53:31.690Z,19.87
2022-09-15T09:58:33.705Z,19.97
2022-09-15T10:03:37.857Z,19.92
2022-09-15T10:08:57.408Z,20.59
2022-09-15T10:13:59.354Z,20.65
2022-09-15T10:19:01.615Z,20.72
2022-09-15T10:24:33.732Z,21.06
2022-09-15T10:29:42.169Z,21.78
2022-09-15T10:34:44.241Z,21.92
2022-09-15T10:39:57.279Z,21.90
2022-09-15T10:45:34.533Z,21.38
2022-09-15T10:50:57.877Z,20.91
2022-09-15T10:56:02.657Z,21.46
2022-09-15T11:01:16.912Z,21.75
2022-09-15T11:06:24.293Z,21.50
2022-09-15T11:12:11.547Z,22.27
2022-09-15T11:17:23.804Z,22.88
2022-09-15T11:23:02.089Z,23.16
2022-09-15T11:28:18.425Z,23.20
2022-09-15T11:33:40.776Z,23.17
2022-09-15T11:38:54.540Z,23.32
2022-09-15T11:44:26.723Z,23.69
2022-09-15T11:49:40.004Z,23.73
2022-09-15T11:54:48.993Z,23.52
2022-09-15T12:00:00.759Z,23.66
2022-09-15T12:05:28.328Z,23.96
2022-09-15T12:10:41.607Z,23.94
2022-09-15T12:15:45.264Z,24.04
2022-09-15T12:21:18.625Z,23.52
2022-09-15T12:26:26.354Z,23.86
2022-09-15T12:31:37.141Z,23.46
2022-09-15T12:36:44.336Z,24.26
2022-09-15T12:41:50.206Z,23.47
2022-09-15T12:46:57.987Z,23.45
2022-09-15T12:52:03.116Z,23.25
2022-09-15T12:57:06.989Z,22.97
2022-09-15T13:02:43.391Z,23.06
2022-09-15T13:07:56.962Z,22.98
2022-09-15T13:13:32.835Z,23.30
2022-09-15T13:18:44.635Z,22.93
2022-09-15T13:23:51.890Z,23.01
2022-09-15T13:28:56.635Z,22.58
2022-09-15T13:39:48.076Z,22.41
2022-09-15T13:44:56.201Z,22.55
2022-09-15T13:50:10.131Z,22.19
2022-09-15T13:55:25.669Z,22.68
2022-09-15T14:00:33.879Z,22.22
2022-09-15T14:05:37.035Z,22.38
2022-09-15T14:10:41.950Z,22.37
2022-09-15T14:16:00.142Z,22.06
2022-09-15T14:21:05.174Z,22.54
2022-09-15T14:26:13.425Z,22.48
2022-09-15T14:31:15.958Z,22.62
2022-09-15T14:36:31.366Z,22.72
2022-09-15T14:41:33.466Z,22.50
2022-09-15T14:46:36.729Z,22.49
2022-09-15T14:51:38.898Z,22.47
2022-09-15T14:56:42.349Z,22.18
2022-09-15T15:02:21.674Z,22.19
2022-09-15T15:07:32.249Z,22.56
2022-09-15T15:12:47.363Z,22.28
2022-09-15T15:17:54.501Z,21.60
2022-09-15T15:23:15.624Z,21.21
2022-09-15T15:28:34.072Z,21.03
2022-09-15T15:33:36.134Z,20.71
2022-09-15T15:38:51.382Z,20.99
2022-09-15T15:43:58.578Z,20.81
2022-09-15T15:49:01.305Z,20.58
2022-09-15T15:54:03.329Z,20.44
2022-09-15T15:59:06.071Z,20.27
2022-09-15T16:04:08.928Z,20.05
2022-09-15T16:09:13.786Z,20.17
2022-09-15T16:14:15.906Z,20.02
2022-09-15T16:19:18.153Z,19.83
2022-09-15T16:24:21.302Z,19.92
2022-09-15T16:29:27.890Z,19.72
2022-09-15T16:34:29.826Z,19.50
2022-09-15T16:39:31.875Z,19.28
2022-09-15T16:44:40.167Z,19.21
2022-09-15T16:49:51.317Z,19.05
2022-09-15T16:54:53.347Z,18.86
2022-09-15T16:59:55.233Z,18.67
2022-09-15T17:04:57.402Z,18.36
2022-09-15T17:09:59.533Z,18.25
2022-09-15T17:15:01.440Z,17.96
2022-09-15T17:20:05.937Z,17.94
2022-09-15T17:25:23.335Z,17.80
2022-09-15T17:30:30.838Z,17.73
2022-09-15T17:35:35.590Z,17.73
2022-09-15T17:40:38.084Z,17.66
2022-09-15T17:45:40.917Z,17.61
2022-09-15T17:50:44.496Z,17.52
2022-09-15T17:55:47.523Z,17.62
2022-09-15T18:00:50.498Z,17.69
2022-09-15T18:05:53.282Z,17.69
2022-09-15T18:10:56.064Z,17.72
2022-09-15T18:16:04.217Z,17.82
2022-09-15T18:21:16.936Z,17.77
2022-09-15T18:26:24.033Z,17.70
2022-09-15T18:31:28.588Z,17.80
2022-09-15T18:36:32.207Z,17.63
2022-09-15T18:41:37.718Z,17.61
2022-09-15T18:46:40.204Z,17.46
2022-09-15T18:51:57.777Z,17.46
2022-09-15T18:57:00.987Z,17.44
2022-09-15T19:02:03.790Z,17.46
2022-09-15T19:07:08.726Z,17.53
2022-09-15T19:12:11.920Z,17.45
2022-09-15T19:17:14.196Z,17.51
2022-09-15T19:22:16.438Z,17.56
2022-09-15T19:27:25.271Z,17.73
2022-09-15T19:32:34.303Z,17.68
2022-09-15T19:37:38.698Z,17.80
2022-09-15T19:42:42.942Z,17.75
2022-09-15T19:47:44.832Z,17.81
2022-09-15T19:52:46.767Z,17.89
2022-09-15T19:57:49.506Z,17.81
2022-09-15T20:02:51.711Z,17.83
2022-09-15T20:07:53.979Z,17.80
2022-09-15T20:12:55.981Z,17.78
2022-09-15T20:17:57.898Z,17.64
2022-09-15T20:23:00.342Z,17.76
2022-09-15T20:28:02.289Z,17.80
2022-09-15T20:33:04.281Z,17.80
2022-09-15T20:38:06.460Z,17.87
2022-09-15T20:43:08.391Z,17.85
2022-09-15T20:48:10.610Z,17.77
2022-09-15T20:53:12.557Z,17.78
2022-09-15T20:58:15.338Z,17.70
2022-09-15T21:03:17.574Z,17.54
2022-09-15T21:08:19.796Z,17.34
2022-09-15T21:13:26.985Z,17.22
2022-09-15T21:18:34.513Z,17.14
2022-09-15T21:23:45.757Z,16.92
2022-09-15T21:28:48.805Z,16.77
2022-09-15T21:33:52.864Z,16.65
2022-09-15T21:38:56.542Z,16.55
2022-09-15T21:43:59.314Z,16.44
2022-09-15T21:49:01.353Z,16.32
2022-09-15T21:54:03.351Z,16.24
2022-09-15T21:59:05.812Z,16.19
2022-09-15T22:04:10.362Z,16.10
2022-09-15T22:09:17.792Z,15.95
2022-09-15T22:14:21.583Z,15.84
2022-09-15T22:19:23.639Z,15.75
2022-09-15T22:24:26.921Z,15.65
2022-09-15T22:29:28.800Z,15.53
2022-09-15T22:34:31.073Z,15.48
2022-09-15T22:39:57.163Z,15.39
2022-09-15T22:44:54.873Z,15.25
2022-09-15T22:49:56.879Z,15.23
2022-09-15T22:54:58.827Z,15.14
2022-09-15T23:00:00.785Z,15.09
2022-09-15T23:05:02.949Z,15.02
2022-09-15T23:10:06.245Z,14.93
2022-09-15T23:15:08.693Z,14.88
2022-09-15T23:20:11.270Z,14.79
2022-09-15T23:25:13.413Z,14.75
2022-09-15T23:30:15.529Z,14.71
2022-09-15T23:35:17.535Z,14.54
2022-09-15T23:40:19.445Z,14.49
2022-09-15T23:45:21.733Z,14.40
2022-09-15T23:50:23.729Z,14.33
2022-09-15T23:55:26.270Z,14.25
